sensor_id;sensor_type;location;lat;lon;timestamp;pressure;altitude;pressure_sealevel;temperature;humidity
3260;BME280;22469;48.150;14.004;2022-10-01T00:01:22;97774.16;;;16.40;70.70
3260;BME280;22469;48.150;14.004;2022-10-01T00:03:49;97786.16;;;16.41;70.95
3260;BME280;22469;48.150;14.004;2022-10-01T00:06:19;97771.66;;;16.38;70.84
3260;BME280;22469;48.150;14.004;2022-10-01T00:08:48;97782.69;;;16.42;70.86
3260;BME280;22469;48.150;14.004;2022-10-01T00:11:19;97779.25;;;16.41;70.66
3260;BME280;22469;48.150;14.004;2022-10-01T00:13:49;97775.91;;;16.39;70.96
3260;BME280;22469;48.150;14.004;2022-10-01T00:16:19;97772.31;;;16.42;70.99
3260;BME280;22469;48.150;14.004;2022-10-01T00:18:48;97768.97;;;16.40;70.93
3260;BME280;22469;48.150;14.004;2022-10-01T00:21:24;97771.50;;;16.41;70.77
3260;BME280;22469;48.150;14.004;2022-10-01T00:24:02;97774.25;;;16.38;71.04
3260;BME280;22469;48.150;14.004;2022-10-01T00:26:35;97775.16;;;16.37;70.92
3260;BME280;22469;48.150;14.004;2022-10-01T00:29:10;97784.50;;;16.40;70.85
3260;BME280;22469;48.150;14.004;2022-10-01T00:31:39;97784.78;;;16.35;70.89
3260;BME280;22469;48.150;14.004;2022-10-01T00:34:06;97777.09;;;16.33;71.50
3260;BME280;22469;48.150;14.004;2022-10-01T00:36:34;97781.44;;;16.33;71.52
3260;BME280;22469;48.150;14.004;2022-10-01T00:39:00;97780.44;;;16.35;71.18
3260;BME280;22469;48.150;14.004;2022-10-01T00:41:30;97782.28;;;16.33;71.27
3260;BME280;22469;48.150;14.004;2022-10-01T00:44:02;97784.03;;;16.33;71.56
3260;BME280;22469;48.150;14.004;2022-10-01T00:47:05;97787.38;;;16.35;71.31
3260;BME280;22469;48.150;14.004;2022-10-01T00:49:38;97788.22;;;16.35;72.00
3260;BME280;22469;48.150;14.004;2022-10-01T00:52:12;97776.91;;;16.37;71.25
3260;BME280;22469;48.150;14.004;2022-10-01T00:54:56;97779.63;;;16.35;70.96
3260;BME280;22469;48.150;14.004;2022-10-01T00:57:26;97787.44;;;16.33;71.05
3260;BME280;22469;48.150;14.004;2022-10-01T00:59:55;97795.16;;;16.35;71.12
3260;BME280;22469;48.150;14.004;2022-10-01T01:02:23;97799.50;;;16.34;70.88
3260;BME280;22469;48.150;14.004;2022-10-01T01:04:50;97802.91;;;16.35;71.00
3260;BME280;22469;48.150;14.004;2022-10-01T01:07:18;97808.91;;;16.35;71.15
3260;BME280;22469;48.150;14.004;2022-10-01T01:09:46;97806.31;;;16.35;70.96
3260;BME280;22469;48.150;14.004;2022-10-01T01:18:12;97817.13;;;16.28;71.22
3260;BME280;22469;48.150;14.004;2022-10-01T01:26:22;97809.53;;;16.25;71.38
3260;BME280;22469;48.150;14.004;2022-10-01T01:29:04;97798.53;;;16.21;71.32
3260;BME280;22469;48.150;14.004;2022-10-01T01:31:47;97807.97;;;16.22;71.33
3260;BME280;22469;48.150;14.004;2022-10-01T01:34:22;97801.78;;;16.25;71.23
3260;BME280;22469;48.150;14.004;2022-10-01T01:37:05;97807.78;;;16.25;71.24
3260;BME280;22469;48.150;14.004;2022-10-01T01:39:40;97815.06;;;16.19;71.79
3260;BME280;22469;48.150;14.004;2022-10-01T01:42:18;97818.66;;;16.16;71.81
3260;BME280;22469;48.150;14.004;2022-10-01T01:44:51;97815.19;;;16.17;71.75
3260;BME280;22469;48.150;14.004;2022-10-01T01:47:25;97819.50;;;16.17;71.71
3260;BME280;22469;48.150;14.004;2022-10-01T01:49:55;97825.59;;;16.16;71.72
3260;BME280;22469;48.150;14.004;2022-10-01T01:52:24;97832.44;;;16.17;71.84
3260;BME280;22469;48.150;14.004;2022-10-01T01:54:53;97817.75;;;16.17;71.70
3260;BME280;22469;48.150;14.004;2022-10-01T01:57:21;97817.84;;;16.16;71.57
3260;BME280;22469;48.150;14.004;2022-10-01T01:59:48;97822.06;;;16.17;71.77
3260;BME280;22469;48.150;14.004;2022-10-01T02:02:18;97823.00;;;16.16;71.92
3260;BME280;22469;48.150;14.004;2022-10-01T02:04:55;97823.00;;;16.16;71.82
3260;BME280;22469;48.150;14.004;2022-10-01T02:13:38;97816.00;;;16.18;71.99
3260;BME280;22469;48.150;14.004;2022-10-01T02:16:40;97815.72;;;16.22;71.73
3260;BME280;22469;48.150;14.004;2022-10-01T02:22:17;97821.66;;;16.24;72.12
3260;BME280;22469;48.150;14.004;2022-10-01T02:24:51;97825.81;;;16.27;71.78
3260;BME280;22469;48.150;14.004;2022-10-01T02:27:39;97824.91;;;16.28;72.03
3260;BME280;22469;48.150;14.004;2022-10-01T02:30:11;97825.63;;;16.30;71.83
3260;BME280;22469;48.150;14.004;2022-10-01T02:32:41;97822.31;;;16.28;71.87
3260;BME280;22469;48.150;14.004;2022-10-01T02:35:14;97824.72;;;16.31;71.62
3260;BME280;22469;48.150;14.004;2022-10-01T02:37:44;97822.97;;;16.31;71.57
3260;BME280;22469;48.150;14.004;2022-10-01T02:40:16;97822.03;;;16.32;71.52
3260;BME280;22469;48.150;14.004;2022-10-01T02:42:48;97818.63;;;16.32;71.77
3260;BME280;22469;48.150;14.004;2022-10-01T02:45:21;97820.38;;;16.31;71.55
3260;BME280;22469;48.150;14.004;2022-10-01T02:47:53;97818.69;;;16.30;71.51
3260;BME280;22469;48.150;14.004;2022-10-01T02:50:31;97818.50;;;16.33;71.76
3260;BME280;22469;48.150;14.004;2022-10-01T02:53:09;97815.84;;;16.35;71.64
3260;BME280;22469;48.150;14.004;2022-10-01T02:55:40;97817.50;;;16.36;71.65
3260;BME280;22469;48.150;14.004;2022-10-01T02:58:09;97812.34;;;16.36;71.33
3260;BME280;22469;48.150;14.004;2022-10-01T03:00:36;97802.91;;;16.35;71.54
3260;BME280;22469;48.150;14.004;2022-10-01T03:03:03;97800.50;;;16.32;72.05
3260;BME280;22469;48.150;14.004;2022-10-01T03:05:30;97805.03;;;16.28;71.63
3260;BME280;22469;48.150;14.004;2022-10-01T03:07:57;97797.25;;;16.28;72.17
3260;BME280;22469;48.150;14.004;2022-10-01T03:10:24;97795.59;;;16.27;72.40
3260;BME280;22469;48.150;14.004;2022-10-01T03:12:51;97800.09;;;16.24;71.99
3260;BME280;22469;48.150;14.004;2022-10-01T03:15:18;97791.78;;;16.19;72.00
3260;BME280;22469;48.150;14.004;2022-10-01T03:17:50;97802.13;;;16.19;71.86
3260;BME280;22469;48.150;14.004;2022-10-01T03:20:17;97797.97;;;16.16;71.94
3260;BME280;22469;48.150;14.004;2022-10-01T03:22:45;97799.81;;;16.14;72.25
3260;BME280;22469;48.150;14.004;2022-10-01T03:25:14;97801.47;;;16.15;72.21
3260;BME280;22469;48.150;14.004;2022-10-01T03:27:41;97802.31;;;16.16;72.49
3260;BME280;22469;48.150;14.004;2022-10-01T03:30:10;97803.78;;;16.20;72.29
3260;BME280;22469;48.150;14.004;2022-10-01T03:32:37;97802.22;;;16.17;72.15
3260;BME280;22469;48.150;14.004;2022-10-01T03:35:05;97796.97;;;16.19;71.79
3260;BME280;22469;48.150;14.004;2022-10-01T03:37:33;97800.31;;;16.21;71.78
3260;BME280;22469;48.150;14.004;2022-10-01T03:40:00;97791.59;;;16.22;71.81
3260;BME280;22469;48.150;14.004;2022-10-01T03:42:27;97801.03;;;16.23;71.83
3260;BME280;22469;48.150;14.004;2022-10-01T03:44:54;97795.84;;;16.23;72.30
3260;BME280;22469;48.150;14.004;2022-10-01T03:47:21;97797.34;;;16.27;72.03
3260;BME280;22469;48.150;14.004;2022-10-01T03:49:49;97797.34;;;16.27;71.64
3260;BME280;22469;48.150;14.004;2022-10-01T03:52:16;97791.44;;;16.25;71.84
3260;BME280;22469;48.150;14.004;2022-10-01T03:54:44;97798.53;;;16.21;71.80
3260;BME280;22469;48.150;14.004;2022-10-01T03:57:11;97797.78;;;16.19;71.80
3260;BME280;22469;48.150;14.004;2022-10-01T03:59:38;97790.84;;;16.20;72.06
3260;BME280;22469;48.150;14.004;2022-10-01T04:02:05;97802.41;;;16.14;72.04
3260;BME280;22469;48.150;14.004;2022-10-01T04:04:33;97802.75;;;16.08;72.23
3260;BME280;22469;48.150;14.004;2022-10-01T04:07:00;97798.94;;;15.99;72.70
3260;BME280;22469;48.150;14.004;2022-10-01T04:09:27;97788.41;;;16.02;72.26
3260;BME280;22469;48.150;14.004;2022-10-01T04:11:54;97791.66;;;16.06;72.54
3260;BME280;22469;48.150;14.004;2022-10-01T04:14:21;97783.81;;;16.07;72.40
3260;BME280;22469;48.150;14.004;2022-10-01T04:16:48;97783.81;;;16.07;72.35
3260;BME280;22469;48.150;14.004;2022-10-01T04:19:18;97779.75;;;16.03;72.65
3260;BME280;22469;48.150;14.004;2022-10-01T04:21:46;97788.34;;;16.04;72.30
3260;BME280;22469;48.150;14.004;2022-10-01T04:24:13;97785.75;;;16.04;72.44
3260;BME280;22469;48.150;14.004;2022-10-01T04:26:40;97783.22;;;16.02;72.34
3260;BME280;22469;48.150;14.004;2022-10-01T04:29:07;97785.09;;;16.00;72.71
3260;BME280;22469;48.150;14.004;2022-10-01T04:31:35;97785.00;;;16.02;72.32
3260;BME280;22469;48.150;14.004;2022-10-01T04:34:03;97779.91;;;16.00;72.22
3260;BME280;22469;48.150;14.004;2022-10-01T04:36:30;97787.09;;;15.95;72.47
3260;BME280;22469;48.150;14.004;2022-10-01T04:38:57;97791.44;;;15.95;72.33
3260;BME280;22469;48.150;14.004;2022-10-01T04:41:28;97792.44;;;15.92;72.44
3260;BME280;22469;48.150;14.004;2022-10-01T04:43:57;97784.03;;;15.88;72.57
3260;BME280;22469;48.150;14.004;2022-10-01T04:46:28;97788.66;;;15.83;72.66
3260;BME280;22469;48.150;14.004;2022-10-01T04:48:57;97795.91;;;15.77;72.67
3260;BME280;22469;48.150;14.004;2022-10-01T04:51:24;97794.16;;;15.77;72.32
3260;BME280;22469;48.150;14.004;2022-10-01T04:53:51;97791.63;;;15.76;72.25
3260;BME280;22469;48.150;14.004;2022-10-01T04:56:18;97787.31;;;15.76;72.10
3260;BME280;22469;48.150;14.004;2022-10-01T04:58:45;97792.50;;;15.76;72.23
3260;BME280;22469;48.150;14.004;2022-10-01T05:01:14;97787.41;;;15.75;72.07
3260;BME280;22469;48.150;14.004;2022-10-01T05:03:41;97786.66;;;15.73;72.37
3260;BME280;22469;48.150;14.004;2022-10-01T05:06:08;97786.06;;;15.68;71.43
3260;BME280;22469;48.150;14.004;2022-10-01T05:08:35;97787.00;;;15.67;71.34
3260;BME280;22469;48.150;14.004;2022-10-01T05:11:03;97791.34;;;15.66;71.03
3260;BME280;22469;48.150;14.004;2022-10-01T05:13:30;97786.31;;;15.63;71.01
3260;BME280;22469;48.150;14.004;2022-10-01T05:15:57;97778.31;;;15.52;71.17
3260;BME280;22469;48.150;14.004;2022-10-01T05:18:24;97772.41;;;15.50;71.09
3260;BME280;22469;48.150;14.004;2022-10-01T05:20:52;97773.50;;;15.46;71.08
3260;BME280;22469;48.150;14.004;2022-10-01T05:23:19;97778.06;;;15.40;71.21
3260;BME280;22469;48.150;14.004;2022-10-01T05:25:45;97771.25;;;15.39;70.97
3260;BME280;22469;48.150;14.004;2022-10-01T05:28:13;97776.47;;;15.38;70.94
3260;BME280;22469;48.150;14.004;2022-10-01T05:30:48;97782.69;;;15.35;70.92
3260;BME280;22469;48.150;14.004;2022-10-01T05:33:15;97783.56;;;15.34;70.90
3260;BME280;22469;48.150;14.004;2022-10-01T05:35:42;97777.25;;;15.24;71.04
3260;BME280;22469;48.150;14.004;2022-10-01T05:38:10;97777.25;;;15.24;71.12
3260;BME280;22469;48.150;14.004;2022-10-01T05:40:37;97776.56;;;15.21;71.26
3260;BME280;22469;48.150;14.004;2022-10-01T05:43:04;97782.75;;;15.18;71.71
3260;BME280;22469;48.150;14.004;2022-10-01T05:45:31;97772.59;;;15.15;71.54
3260;BME280;22469;48.150;14.004;2022-10-01T05:48:04;97780.25;;;15.16;72.19
3260;BME280;22469;48.150;14.004;2022-10-01T05:50:35;97781.84;;;15.19;72.66
3260;BME280;22469;48.150;14.004;2022-10-01T05:53:07;97782.66;;;15.20;73.20
3260;BME280;22469;48.150;14.004;2022-10-01T05:55:36;97778.16;;;15.23;73.69
3260;BME280;22469;48.150;14.004;2022-10-01T05:58:05;97783.06;;;15.28;73.86
3260;BME280;22469;48.150;14.004;2022-10-01T06:00:34;97781.16;;;15.31;73.82
3260;BME280;22469;48.150;14.004;2022-10-01T06:03:02;97775.81;;;15.34;73.78
3260;BME280;22469;48.150;14.004;2022-10-01T06:05:32;97776.47;;;15.38;73.68
3260;BME280;22469;48.150;14.004;2022-10-01T06:08:03;97779.72;;;15.41;73.42
3260;BME280;22469;48.150;14.004;2022-10-01T06:10:32;97782.81;;;15.48;73.37
3260;BME280;22469;48.150;14.004;2022-10-01T06:13:00;97778.22;;;15.53;73.72
3260;BME280;22469;48.150;14.004;2022-10-01T06:15:33;97778.22;;;15.53;73.96
3260;BME280;22469;48.150;14.004;2022-10-01T06:18:07;97767.47;;;15.61;74.11
3260;BME280;22469;48.150;14.004;2022-10-01T06:20:37;97766.34;;;15.65;74.26
3260;BME280;22469;48.150;14.004;2022-10-01T06:23:06;97768.81;;;15.68;74.31
3260;BME280;22469;48.150;14.004;2022-10-01T06:25:39;97764.94;;;15.75;74.19
3260;BME280;22469;48.150;14.004;2022-10-01T06:28:09;97766.44;;;15.79;74.24
3260;BME280;22469;48.150;14.004;2022-10-01T06:30:38;97771.25;;;15.85;74.30
3260;BME280;22469;48.150;14.004;2022-10-01T06:33:08;97765.69;;;15.93;74.67
3260;BME280;22469;48.150;14.004;2022-10-01T06:35:48;97769.47;;;16.02;74.09
3260;BME280;22469;48.150;14.004;2022-10-01T06:38:18;97775.41;;;16.04;73.67
3260;BME280;22469;48.150;14.004;2022-10-01T06:40:57;97773.38;;;16.09;73.99
3260;BME280;22469;48.150;14.004;2022-10-01T06:43:27;97773.94;;;16.14;73.95
3260;BME280;22469;48.150;14.004;2022-10-01T06:45:56;97784.94;;;16.18;73.10
3260;BME280;22469;48.150;14.004;2022-10-01T06:48:26;97778.66;;;16.22;72.74
3260;BME280;22469;48.150;14.004;2022-10-01T06:50:57;97775.72;;;16.28;72.30
3260;BME280;22469;48.150;14.004;2022-10-01T06:53:26;97776.72;;;16.25;72.15
3260;BME280;22469;48.150;14.004;2022-10-01T06:55:54;97783.56;;;16.26;72.32
3260;BME280;22469;48.150;14.004;2022-10-01T06:58:23;97777.66;;;16.24;72.81
3260;BME280;22469;48.150;14.004;2022-10-01T07:00:58;97789.03;;;16.22;72.18
3260;BME280;22469;48.150;14.004;2022-10-01T07:03:28;97796.31;;;16.15;72.17
3260;BME280;22469;48.150;14.004;2022-10-01T07:06:05;97802.22;;;16.17;71.94
3260;BME280;22469;48.150;14.004;2022-10-01T07:08:34;97801.31;;;16.18;71.89
3260;BME280;22469;48.150;14.004;2022-10-01T07:11:02;97805.47;;;16.21;71.73
3260;BME280;22469;48.150;14.004;2022-10-01T07:13:29;97802.78;;;16.22;71.82
3260;BME280;22469;48.150;14.004;2022-10-01T07:15:56;97805.66;;;16.18;72.03
3260;BME280;22469;48.150;14.004;2022-10-01T07:18:23;97810.34;;;16.11;71.57
3260;BME280;22469;48.150;14.004;2022-10-01T07:20:50;97821.78;;;16.07;72.34
3260;BME280;22469;48.150;14.004;2022-10-01T07:23:17;97814.03;;;16.07;71.89
3260;BME280;22469;48.150;14.004;2022-10-01T07:25:44;97816.41;;;16.10;72.04
3260;BME280;22469;48.150;14.004;2022-10-01T07:28:17;97826.53;;;16.15;71.75
3260;BME280;22469;48.150;14.004;2022-10-01T07:31:06;97822.19;;;16.15;71.90
3260;BME280;22469;48.150;14.004;2022-10-01T07:33:37;97821.34;;;16.15;71.87
3260;BME280;22469;48.150;14.004;2022-10-01T07:36:07;97824.59;;;16.18;72.05
3260;BME280;22469;48.150;14.004;2022-10-01T07:38:35;97823.22;;;16.27;71.82
3260;BME280;22469;48.150;14.004;2022-10-01T07:41:02;97822.13;;;16.31;71.60
3260;BME280;22469;48.150;14.004;2022-10-01T07:43:31;97821.84;;;16.35;71.42
3260;BME280;22469;48.150;14.004;2022-10-01T07:45:58;97815.56;;;16.40;71.26
3260;BME280;22469;48.150;14.004;2022-10-01T07:48:27;97820.13;;;16.50;71.29
3260;BME280;22469;48.150;14.004;2022-10-01T07:50:54;97810.13;;;16.44;71.01
3260;BME280;22469;48.150;14.004;2022-10-01T07:53:23;97819.63;;;16.44;70.94
3260;BME280;22469;48.150;14.004;2022-10-01T07:55:51;97815.59;;;16.54;70.44
3260;BME280;22469;48.150;14.004;2022-10-01T07:58:18;97819.75;;;16.42;70.13
3260;BME280;22469;48.150;14.004;2022-10-01T08:00:49;97816.69;;;16.50;70.06
3260;BME280;22469;48.150;14.004;2022-10-01T08:03:21;97809.19;;;16.75;69.37
3260;BME280;22469;48.150;14.004;2022-10-01T08:05:49;97809.91;;;16.92;69.09
3260;BME280;22469;48.150;14.004;2022-10-01T08:08:18;97806.09;;;16.97;67.94
3260;BME280;22469;48.150;14.004;2022-10-01T08:10:45;97802.41;;;16.87;67.67
3260;BME280;22469;48.150;14.004;2022-10-01T08:13:14;97807.31;;;17.06;68.56
3260;BME280;22469;48.150;14.004;2022-10-01T08:15:46;97805.34;;;17.24;67.79
3260;BME280;22469;48.150;14.004;2022-10-01T08:18:22;97808.09;;;17.35;67.15
3260;BME280;22469;48.150;14.004;2022-10-01T08:20:49;97802.31;;;17.44;66.88
3260;BME280;22469;48.150;14.004;2022-10-01T08:23:16;97803.84;;;17.61;65.69
3260;BME280;22469;48.150;14.004;2022-10-01T08:25:44;97806.47;;;17.74;66.55
3260;BME280;22469;48.150;14.004;2022-10-01T08:28:13;97797.81;;;17.88;66.31
3260;BME280;22469;48.150;14.004;2022-10-01T08:30:41;97800.34;;;17.89;65.18
3260;BME280;22469;48.150;14.004;2022-10-01T08:33:10;97806.19;;;18.06;66.08
3260;BME280;22469;48.150;14.004;2022-10-01T08:35:38;97806.44;;;18.15;65.17
3260;BME280;22469;48.150;14.004;2022-10-01T08:38:06;97786.19;;;18.33;64.98
3260;BME280;22469;48.150;14.004;2022-10-01T08:40:35;97797.09;;;18.51;64.04
3260;BME280;22469;48.150;14.004;2022-10-01T08:43:34;97790.88;;;18.54;61.76
3260;BME280;22469;48.150;14.004;2022-10-01T08:46:06;97786.28;;;18.83;63.96
3260;BME280;22469;48.150;14.004;2022-10-01T08:56:42;97782.44;;;18.88;60.19
3260;BME280;22469;48.150;14.004;2022-10-01T09:01:58;97790.59;;;18.84;59.65
3260;BME280;22469;48.150;14.004;2022-10-01T09:04:26;97784.63;;;18.94;58.97
3260;BME280;22469;48.150;14.004;2022-10-01T09:07:07;97786.69;;;19.02;58.99
3260;BME280;22469;48.150;14.004;2022-10-01T09:15:40;97775.47;;;18.89;59.71
3260;BME280;22469;48.150;14.004;2022-10-01T09:21:31;97766.69;;;19.15;58.06
3260;BME280;22469;48.150;14.004;2022-10-01T09:24:14;97772.56;;;19.30;58.51
3260;BME280;22469;48.150;14.004;2022-10-01T09:26:48;97766.72;;;19.39;58.33
3260;BME280;22469;48.150;14.004;2022-10-01T09:29:22;97766.91;;;19.49;56.94
3260;BME280;22469;48.150;14.004;2022-10-01T09:32:15;97766.81;;;19.38;56.31
3260;BME280;22469;48.150;14.004;2022-10-01T09:34:46;97763.78;;;19.44;56.57
3260;BME280;22469;48.150;14.004;2022-10-01T09:37:29;97759.94;;;19.61;56.74
3260;BME280;22469;48.150;14.004;2022-10-01T09:40:19;97756.38;;;19.75;56.24
3260;BME280;22469;48.150;14.004;2022-10-01T09:42:50;97754.06;;;19.83;55.88
3260;BME280;22469;48.150;14.004;2022-10-01T09:45:18;97760.09;;;19.83;55.38
3260;BME280;22469;48.150;14.004;2022-10-01T09:47:50;97753.59;;;19.89;54.95
3260;BME280;22469;48.150;14.004;2022-10-01T09:50:29;97748.16;;;19.92;54.43
3260;BME280;22469;48.150;14.004;2022-10-01T09:53:15;97751.69;;;19.80;53.71
3260;BME280;22469;48.150;14.004;2022-10-01T09:55:51;97747.44;;;19.90;54.17
3260;BME280;22469;48.150;14.004;2022-10-01T09:58:23;97747.81;;;19.97;53.77
3260;BME280;22469;48.150;14.004;2022-10-01T10:00:53;97743.53;;;19.96;52.83
3260;BME280;22469;48.150;14.004;2022-10-01T10:03:26;97743.88;;;19.80;53.46
3260;BME280;22469;48.150;14.004;2022-10-01T10:05:57;97740.41;;;19.79;53.56
3260;BME280;22469;48.150;14.004;2022-10-01T10:08:30;97738.06;;;19.52;52.28
3260;BME280;22469;48.150;14.004;2022-10-01T10:11:10;97738.16;;;19.75;53.88
3260;BME280;22469;48.150;14.004;2022-10-01T10:13:52;97740.28;;;19.46;52.84
3260;BME280;22469;48.150;14.004;2022-10-01T10:16:30;97738.44;;;19.59;53.05
3260;BME280;22469;48.150;14.004;2022-10-01T10:19:06;97732.69;;;19.67;52.64
3260;BME280;22469;48.150;14.004;2022-10-01T10:21:50;97732.09;;;19.63;52.16
3260;BME280;22469;48.150;14.004;2022-10-01T10:24:39;97731.34;;;19.37;53.36
3260;BME280;22469;48.150;14.004;2022-10-01T10:27:20;97735.31;;;19.67;51.79
3260;BME280;22469;48.150;14.004;2022-10-01T10:30:12;97729.38;;;19.64;52.30
3260;BME280;22469;48.150;14.004;2022-10-01T10:32:42;97723.53;;;19.85;52.30
3260;BME280;22469;48.150;14.004;2022-10-01T10:35:16;97721.75;;;19.85;51.22
3260;BME280;22469;48.150;14.004;2022-10-01T10:37:55;97721.53;;;20.00;51.43
3260;BME280;22469;48.150;14.004;2022-10-01T10:40:50;97724.13;;;20.00;51.15
3260;BME280;22469;48.150;14.004;2022-10-01T10:43:27;97705.69;;;20.03;51.20
3260;BME280;22469;48.150;14.004;2022-10-01T10:45:56;97697.19;;;20.12;51.09
3260;BME280;22469;48.150;14.004;2022-10-01T10:48:31;97702.19;;;20.26;50.53
3260;BME280;22469;48.150;14.004;2022-10-01T10:51:04;97703.13;;;20.25;49.31
3260;BME280;22469;48.150;14.004;2022-10-01T10:53:43;97705.59;;;20.27;50.65
3260;BME280;22469;48.150;14.004;2022-10-01T10:56:18;97702.06;;;20.28;50.36
3260;BME280;22469;48.150;14.004;2022-10-01T10:58:49;97692.47;;;20.28;50.99
3260;BME280;22469;48.150;14.004;2022-10-01T11:01:29;97688.47;;;20.35;50.87
3260;BME280;22469;48.150;14.004;2022-10-01T11:03:59;97681.69;;;20.22;50.78
3260;BME280;22469;48.150;14.004;2022-10-01T11:06:27;97680.03;;;20.32;50.62
3260;BME280;22469;48.150;14.004;2022-10-01T11:09:02;97678.13;;;20.34;50.98
3260;BME280;22469;48.150;14.004;2022-10-01T11:37:40;97613.88;;;21.00;50.53
3260;BME280;22469;48.150;14.004;2022-10-01T11:40:27;97621.31;;;21.05;49.15
3260;BME280;22469;48.150;14.004;2022-10-01T11:43:22;97615.19;;;20.95;48.42
3260;BME280;22469;48.150;14.004;2022-10-01T11:46:02;97623.13;;;20.93;47.65
3260;BME280;22469;48.150;14.004;2022-10-01T11:48:55;97621.50;;;20.92;48.52
3260;BME280;22469;48.150;14.004;2022-10-01T11:54:38;97623.03;;;20.83;48.24
3260;BME280;22469;48.150;14.004;2022-10-01T11:57:22;97617.00;;;20.83;48.04
3260;BME280;22469;48.150;14.004;2022-10-01T12:00:10;97622.56;;;20.78;48.51
3260;BME280;22469;48.150;14.004;2022-10-01T12:02:58;97627.69;;;20.69;47.97
3260;BME280;22469;48.150;14.004;2022-10-01T12:05:29;97623.06;;;20.61;48.51
3260;BME280;22469;48.150;14.004;2022-10-01T12:08:26;97632.56;;;20.62;49.06
3260;BME280;22469;48.150;14.004;2022-10-01T12:13:47;97637.06;;;20.49;47.13
3260;BME280;22469;48.150;14.004;2022-10-01T12:16:31;97643.22;;;20.36;46.58
3260;BME280;22469;48.150;14.004;2022-10-01T12:21:56;97642.59;;;19.99;46.27
3260;BME280;22469;48.150;14.004;2022-10-01T12:24:34;97642.16;;;20.05;46.69
3260;BME280;22469;48.150;14.004;2022-10-01T12:30:04;97652.91;;;19.54;46.73
3260;BME280;22469;48.150;14.004;2022-10-01T12:35:37;97652.59;;;19.35;47.60
3260;BME280;22469;48.150;14.004;2022-10-01T12:47:26;97655.44;;;18.71;49.85
3260;BME280;22469;48.150;14.004;2022-10-01T13:07:51;97689.19;;;17.96;56.12
3260;BME280;22469;48.150;14.004;2022-10-01T13:13:30;97697.78;;;17.84;57.87
3260;BME280;22469;48.150;14.004;2022-10-01T13:16:28;97702.50;;;17.64;60.07
3260;BME280;22469;48.150;14.004;2022-10-01T13:24:51;97674.00;;;17.77;61.90
3260;BME280;22469;48.150;14.004;2022-10-01T13:27:28;97671.63;;;17.99;61.37
3260;BME280;22469;48.150;14.004;2022-10-01T13:30:15;97668.44;;;18.09;61.92
3260;BME280;22469;48.150;14.004;2022-10-01T13:32:55;97671.72;;;18.11;61.48
3260;BME280;22469;48.150;14.004;2022-10-01T13:35:27;97663.13;;;18.23;61.44
3260;BME280;22469;48.150;14.004;2022-10-01T13:38:12;97664.34;;;18.30;62.91
3260;BME280;22469;48.150;14.004;2022-10-01T13:40:41;97666.63;;;18.35;63.43
3260;BME280;22469;48.150;14.004;2022-10-01T13:43:17;97675.66;;;18.42;63.30
3260;BME280;22469;48.150;14.004;2022-10-01T13:45:48;97677.81;;;18.48;63.02
3260;BME280;22469;48.150;14.004;2022-10-01T13:48:25;97675.63;;;18.55;61.98
3260;BME280;22469;48.150;14.004;2022-10-01T13:51:04;97675.31;;;18.59;62.97
3260;BME280;22469;48.150;14.004;2022-10-01T13:56:13;97679.81;;;18.44;63.02
3260;BME280;22469;48.150;14.004;2022-10-01T13:59:00;97674.81;;;18.41;63.06
3260;BME280;22469;48.150;14.004;2022-10-01T14:01:42;97682.81;;;18.38;63.97
3260;BME280;22469;48.150;14.004;2022-10-01T14:06:55;97692.59;;;18.35;64.29
3260;BME280;22469;48.150;14.004;2022-10-01T14:09:35;97694.81;;;18.15;63.71
3260;BME280;22469;48.150;14.004;2022-10-01T14:12:28;97695.91;;;18.11;64.28
3260;BME280;22469;48.150;14.004;2022-10-01T14:15:19;97695.00;;;18.12;63.51
3260;BME280;22469;48.150;14.004;2022-10-01T14:18:26;97697.28;;;18.17;64.05
3260;BME280;22469;48.150;14.004;2022-10-01T14:21:28;97702.59;;;18.15;65.30
3260;BME280;22469;48.150;14.004;2022-10-01T14:35:29;97733.75;;;17.75;66.77
3260;BME280;22469;48.150;14.004;2022-10-01T14:38:03;97731.94;;;17.50;66.82
3260;BME280;22469;48.150;14.004;2022-10-01T14:40:44;97750.22;;;17.35;67.75
3260;BME280;22469;48.150;14.004;2022-10-01T14:43:19;97758.50;;;17.27;68.22
3260;BME280;22469;48.150;14.004;2022-10-01T14:46:03;97757.78;;;17.11;68.76
3260;BME280;22469;48.150;14.004;2022-10-01T14:48:34;97755.63;;;17.17;67.96
3260;BME280;22469;48.150;14.004;2022-10-01T14:51:06;97758.91;;;17.07;68.53
3260;BME280;22469;48.150;14.004;2022-10-01T14:53:47;97755.50;;;17.06;69.31
3260;BME280;22469;48.150;14.004;2022-10-01T14:56:15;97737.03;;;17.11;68.59
3260;BME280;22469;48.150;14.004;2022-10-01T14:58:46;97713.53;;;17.14;69.19
3260;BME280;22469;48.150;14.004;2022-10-01T15:01:23;97689.91;;;17.18;70.14
3260;BME280;22469;48.150;14.004;2022-10-01T15:03:51;97690.66;;;17.20;70.26
3260;BME280;22469;48.150;14.004;2022-10-01T15:06:22;97690.53;;;17.22;70.82
3260;BME280;22469;48.150;14.004;2022-10-01T15:09:01;97692.31;;;17.21;70.94
3260;BME280;22469;48.150;14.004;2022-10-01T15:11:36;97699.88;;;17.24;71.33
3260;BME280;22469;48.150;14.004;2022-10-01T15:14:20;97695.09;;;17.18;71.33
3260;BME280;22469;48.150;14.004;2022-10-01T15:16:50;97704.63;;;17.18;71.06
3260;BME280;22469;48.150;14.004;2022-10-01T15:19:24;97707.03;;;17.21;70.71
3260;BME280;22469;48.150;14.004;2022-10-01T15:22:05;97714.06;;;17.19;70.75
3260;BME280;22469;48.150;14.004;2022-10-01T15:24:43;97714.81;;;17.21;70.63
3260;BME280;22469;48.150;14.004;2022-10-01T15:27:15;97713.88;;;17.22;70.82
3260;BME280;22469;48.150;14.004;2022-10-01T15:29:54;97710.44;;;17.21;70.71
3260;BME280;22469;48.150;14.004;2022-10-01T15:32:30;97713.22;;;17.18;71.08
3260;BME280;22469;48.150;14.004;2022-10-01T15:35:03;97711.78;;;17.14;71.38
3260;BME280;22469;48.150;14.004;2022-10-01T15:37:35;97716.13;;;17.14;71.30
3260;BME280;22469;48.150;14.004;2022-10-01T15:40:20;97716.94;;;17.14;71.74
3260;BME280;22469;48.150;14.004;2022-10-01T15:45:39;97707.22;;;17.18;71.44
3260;BME280;22469;48.150;14.004;2022-10-01T15:48:30;97709.63;;;17.21;71.18